Benet Lake, Wisconsin
Current Conditions -  °F | °C
As of 6:53 PM on Saturday 20 Dec 2014 (Local Time) from KENW Reporting Station
Haze Haze  
Wind Chill: 32°   Ceiling: 4400
Heat Index: 32°   Visibility: 6mi
Dew Point: 25°   Wind: 3mph
Humidity: 75%   Direction: 220°SW
Pressure: 30.25"   Gusts: NA
Location:  42.54°N, 88.02°W
Report Text: KENW 210053Z 22003KT 6SM HZ FEW030 OVC044 00/M04 A3025 RMK AO2 SLP255 T00001039
Loading
Personal Weather Stations






























Interactive Weather Map New forecast layout! Learn more

10-Day Weather Forecast

Advertisements
Track Severe Weather on mobile